Terminal Aerodrome Forecast
Issued by NWS

Home | Current Version | Previous Version | Text Only | Print | Product List | Glossary On
Versions: 1 2 3 4 5 6 7 8 9 10 11 12 13 14 15 16
000
FTUS44 KLZK 170842 AAA
TAFADF
TAF AMD
KADF 170842Z 1709/1806 VRB03KT 5SM RA SCT007 OVC030
      TEMPO 1709/1711 2SM RA BR BKN007
     FM171100 VRB03KT 5SM BR OVC012
     FM171800 VRB04KT P6SM BKN015 OVC035=

USA.gov is the U.S. government's official web portal to all federal, state and local government web resources and services.